Aviation Digital Data Service (ADDS)

Output produced by METARs form (0129 UTC 30 September 2016)
found at http://aviationweather.gov/adds/metars/
 
KACY 292333Z 3000/3024 06018G26KT 4SM -RA BR OVC010 
     TEMPO 3007/3011 2SM +RA BR 
     FM301200 05017G25KT 4SM -RADZ OVC006